Time;durP1;ratioP1;P1;durP2;ratioP2;P2;SDS_P1;SDS_P2;PMS_P1;PMS_P2;Temp;Humidity;BMP_temperature;BMP_pressure;BME280_temperature;BME280_humidity;BME280_pressure;Samples;Min_cycle;Max_cycle;Signal;HPM_P1;HPM_P2
2021/01/27 00:00:33;;;;;;;16.60;8.53;;;;;;;;;;1776075;81;21177;-78
2021/01/27 00:03:02;;;;;;;20.92;8.63;;;;;;;;;;1775922;81;21280;-78
2021/01/27 00:05:38;;;;;;;17.30;8.90;;;;;;;;;;1776083;81;21204;-75
2021/01/27 00:08:05;;;;;;;21.25;8.93;;;;;;;;;;1774932;81;21142;-78
2021/01/27 00:10:31;;;;;;;20.32;8.90;;;;;;;;;;1775973;81;21136;-79
2021/01/27 00:12:57;;;;;;;17.90;8.73;;;;;;;;;;1776279;81;21142;-78
2021/01/27 00:15:25;;;;;;;22.60;10.43;;;;;;;;;;1776364;81;21137;-78
2021/01/27 00:17:52;;;;;;;16.90;9.40;;;;;;;;;;1775967;81;21126;-77
2021/01/27 00:20:19;;;;;;;21.45;8.85;;;;;;;;;;1776064;81;21574;-75
2021/01/27 00:22:46;;;;;;;19.45;9.38;;;;;;;;;;1775963;81;21102;-79
2021/01/27 00:25:12;;;;;;;24.18;9.33;;;;;;;;;;1726894;82;21168;-78
2021/01/27 00:27:38;;;;;;;18.82;9.83;;;;;;;;;;1726866;83;21145;-74
2021/01/27 00:30:06;;;;;;;21.17;10.28;;;;;;;;;;1692449;85;21146;-78
2021/01/27 00:32:32;;;;;;;17.67;9.53;;;;;;;;;;1712398;84;21304;-80
2021/01/27 00:34:59;;;;;;;21.40;8.73;;;;;;;;;;1712593;84;21574;-78
2021/01/27 00:37:25;;;;;;;20.72;9.03;;;;;;;;;;1712584;84;21299;-74
2021/01/27 00:39:51;;;;;;;18.62;7.95;;;;;;;;;;1712482;84;21597;-73
2021/01/27 00:42:17;;;;;;;18.50;8.98;;;;;;;;;;1712381;84;21145;-77
2021/01/27 00:44:43;;;;;;;18.32;9.13;;;;;;;;;;1697426;84;21574;-77
2021/01/27 00:47:10;;;;;;;19.50;9.78;;;;;;;;;;1764479;81;21097;-74
2021/01/27 00:49:36;;;;;;;19.60;9.45;;;;;;;;;;1764376;81;21529;-77
2021/01/27 00:52:02;;;;;;;21.02;9.75;;;;;;;;;;1764434;81;21128;-77
2021/01/27 00:54:28;;;;;;;22.95;9.83;;;;;;;;;;1764449;81;21128;-73
2021/01/27 00:56:54;;;;;;;16.50;8.35;;;;;;;;;;1764261;81;21596;-73
2021/01/27 00:59:20;;;;;;;18.98;8.90;;;;;;;;;;1760808;81;21125;-73
2021/01/27 01:01:47;;;;;;;16.55;8.43;;;;;;;;;;1748126;81;21113;-77
2021/01/27 01:04:13;;;;;;;11.15;6.75;;;;;;;;;;1742238;82;21120;-74
2021/01/27 01:06:39;;;;;;;14.15;6.75;;;;;;;;;;1742091;82;21188;-74
2021/01/27 01:09:05;;;;;;;15.23;8.00;;;;;;;;;;1742213;82;21557;-76
2021/01/27 01:11:31;;;;;;;16.35;7.80;;;;;;;;;;1742230;82;21136;-74
2021/01/27 01:13:57;;;;;;;14.95;6.70;;;;;;;;;;1742186;82;21094;-73
2021/01/27 01:16:24;;;;;;;16.73;8.43;;;;;;;;;;1742310;82;21129;-72
2021/01/27 01:18:50;;;;;;;19.55;8.08;;;;;;;;;;1742210;82;21557;-72
2021/01/27 01:21:16;;;;;;;12.50;5.75;;;;;;;;;;1742090;82;21180;-78
2021/01/27 01:23:42;;;;;;;15.38;7.28;;;;;;;;;;1742188;82;21179;-78
2021/01/27 01:26:08;;;;;;;17.70;7.53;;;;;;;;;;1742210;82;21144;-73
2021/01/27 01:28:34;;;;;;;11.78;6.12;;;;;;;;;;1742212;82;21156;-78
2021/01/27 01:31:01;;;;;;;15.50;6.85;;;;;;;;;;1760478;81;21113;-75
2021/01/27 01:33:27;;;;;;;11.57;5.42;;;;;;;;;;1774442;81;21137;-73
2021/01/27 01:35:54;;;;;;;15.15;7.47;;;;;;;;;;1774342;81;21557;-78
2021/01/27 01:38:20;;;;;;;14.47;7.37;;;;;;;;;;1774254;81;21125;-72
2021/01/27 01:40:47;;;;;;;14.15;6.90;;;;;;;;;;1774319;81;21589;-73
2021/01/27 01:43:24;;;;;;;17.82;7.30;;;;;;;;;;1776508;80;21132;-76
2021/01/27 01:45:54;;;;;;;16.15;7.10;;;;;;;;;;1782829;80;21524;-77
2021/01/27 01:48:27;;;;;;;15.48;6.97;;;;;;;;;;1782890;80;21129;-73
2021/01/27 01:50:55;;;;;;;10.88;4.72;;;;;;;;;;1782871;80;21132;-73
2021/01/27 01:53:21;;;;;;;16.12;7.58;;;;;;;;;;1783055;80;21135;-77
2021/01/27 01:55:48;;;;;;;13.38;5.80;;;;;;;;;;1783096;80;21176;-75
2021/01/27 01:58:14;;;;;;;15.48;7.25;;;;;;;;;;1782963;80;21088;-77
2021/01/27 02:00:40;;;;;;;18.17;7.20;;;;;;;;;;1783086;80;21096;-77
2021/01/27 02:03:13;;;;;;;14.98;6.50;;;;;;;;;;1783064;80;21117;-77
2021/01/27 02:05:39;;;;;;;14.68;7.58;;;;;;;;;;1783147;80;21128;-77
2021/01/27 02:08:05;;;;;;;16.73;7.80;;;;;;;;;;1782987;80;21565;-77
2021/01/27 02:10:31;;;;;;;16.05;7.47;;;;;;;;;;1782725;80;21116;-73
2021/01/27 02:13:14;;;;;;;14.25;7.50;;;;;;;;;;1782746;80;21136;-77
2021/01/27 02:15:59;;;;;;;18.77;7.12;;;;;;;;;;1782364;80;21113;-76
2021/01/27 02:18:27;;;;;;;14.83;6.92;;;;;;;;;;1783030;80;21133;-72
2021/01/27 02:21:11;;;;;;;13.65;5.92;;;;;;;;;;1782690;80;21137;-76
2021/01/27 02:23:54;;;;;;;16.87;8.08;;;;;;;;;;1782920;80;21498;-78
2021/01/27 02:26:34;;;;;;;18.37;6.78;;;;;;;;;;1782846;80;21140;-78
2021/01/27 02:29:02;;;;;;;14.68;7.15;;;;;;;;;;1782815;80;21120;-75
2021/01/27 02:31:30;;;;;;;16.07;7.20;;;;;;;;;;1759512;80;21533;-74
2021/01/27 02:34:01;;;;;;;17.05;7.35;;;;;;;;;;1752042;82;21664;-78
2021/01/27 02:36:28;;;;;;;17.07;6.80;;;;;;;;;;1751937;82;21577;-74
2021/01/27 02:38:56;;;;;;;9.33;4.97;;;;;;;;;;1726660;82;21141;-73
2021/01/27 02:41:33;;;;;;;17.32;8.05;;;;;;;;;;1750878;82;21601;-74
2021/01/27 02:44:01;;;;;;;16.42;7.22;;;;;;;;;;1739723;82;21133;-77
2021/01/27 02:46:29;;;;;;;13.53;5.72;;;;;;;;;;1725805;82;21140;-73
2021/01/27 02:48:59;;;;;;;14.60;6.40;;;;;;;;;;1725804;82;21267;-77
2021/01/27 02:51:27;;;;;;;15.48;7.72;;;;;;;;;;1725706;83;21267;-77
2021/01/27 02:53:55;;;;;;;14.98;7.08;;;;;;;;;;1725644;83;21274;-74
2021/01/27 02:56:31;;;;;;;14.63;7.17;;;;;;;;;;1724569;82;21250;-79
2021/01/27 02:59:02;;;;;;;11.63;6.12;;;;;;;;;;1725694;83;21274;-79
2021/01/27 03:01:36;;;;;;;20.82;7.80;;;;;;;;;;1725685;83;21124;-78
2021/01/27 03:04:03;;;;;;;13.03;5.65;;;;;;;;;;1716596;83;21148;-74
2021/01/27 03:06:29;;;;;;;11.83;6.50;;;;;;;;;;1725762;83;21160;-77
2021/01/27 03:09:03;;;;;;;15.43;7.72;;;;;;;;;;1725881;82;21537;-80
2021/01/27 03:11:30;;;;;;;20.37;7.50;;;;;;;;;;1726013;83;21105;-80
2021/01/27 03:13:56;;;;;;;16.90;8.23;;;;;;;;;;1725737;83;21286;-75
2021/01/27 03:16:24;;;;;;;18.70;7.83;;;;;;;;;;1725670;82;21584;-80
2021/01/27 03:18:52;;;;;;;19.42;9.20;;;;;;;;;;1725651;83;21274;-73
2021/01/27 03:21:19;;;;;;;13.78;6.78;;;;;;;;;;1725504;81;21149;-74
2021/01/27 03:23:48;;;;;;;16.42;7.37;;;;;;;;;;1725891;83;21117;-80
2021/01/27 03:26:16;;;;;;;16.02;7.95;;;;;;;;;;1714934;83;21152;-73
2021/01/27 03:28:44;;;;;;;17.90;8.40;;;;;;;;;;1725805;83;21295;-73
2021/01/27 03:31:11;;;;;;;19.77;9.55;;;;;;;;;;1756351;81;21513;-77
2021/01/27 03:33:54;;;;;;;14.15;7.42;;;;;;;;;;1774369;81;21215;-73
2021/01/27 03:36:20;;;;;;;22.62;9.93;;;;;;;;;;1711883;83;21598;-79
2021/01/27 03:38:47;;;;;;;17.82;8.15;;;;;;;;;;1697092;84;21150;-79
2021/01/27 03:41:18;;;;;;;17.95;8.55;;;;;;;;;;1774425;81;21117;-74
2021/01/27 03:43:49;;;;;;;19.45;8.90;;;;;;;;;;1776561;80;21148;-78
2021/01/27 03:46:17;;;;;;;19.20;8.98;;;;;;;;;;1782428;80;21533;-74
2021/01/27 03:48:44;;;;;;;15.48;8.00;;;;;;;;;;1782881;80;21553;-79
2021/01/27 03:51:10;;;;;;;16.45;7.22;;;;;;;;;;1782827;80;21073;-73
2021/01/27 03:53:36;;;;;;;16.60;7.87;;;;;;;;;;1783016;80;21081;-78
2021/01/27 03:56:04;;;;;;;18.42;7.37;;;;;;;;;;1782857;80;21097;-73
2021/01/27 03:58:32;;;;;;;16.27;7.67;;;;;;;;;;1782887;80;21144;-74
2021/01/27 04:00:59;;;;;;;15.60;7.50;;;;;;;;;;1782713;80;21125;-72
2021/01/27 04:03:25;;;;;;;16.27;7.72;;;;;;;;;;1782905;80;21140;-80
2021/01/27 04:05:51;;;;;;;12.20;5.10;;;;;;;;;;1782785;80;21553;-73
2021/01/27 04:08:18;;;;;;;12.88;6.08;;;;;;;;;;1782911;80;21136;-72
2021/01/27 04:10:44;;;;;;;15.95;7.47;;;;;;;;;;1782846;80;21137;-72
2021/01/27 04:13:10;;;;;;;12.78;5.90;;;;;;;;;;1782832;80;21529;-78
2021/01/27 04:15:36;;;;;;;11.78;6.05;;;;;;;;;;1782898;80;21120;-78
2021/01/27 04:18:02;;;;;;;9.58;4.87;;;;;;;;;;1782832;80;21137;-78
2021/01/27 04:20:29;;;;;;;17.37;6.97;;;;;;;;;;1782891;80;21581;-77
2021/01/27 04:22:55;;;;;;;14.00;5.85;;;;;;;;;;1782974;80;21148;-74
2021/01/27 04:25:21;;;;;;;14.47;6.47;;;;;;;;;;1782891;80;21541;-78
2021/01/27 04:27:47;;;;;;;14.70;7.72;;;;;;;;;;1783005;80;21143;-73
2021/01/27 04:30:15;;;;;;;17.37;7.28;;;;;;;;;;1775429;80;21563;-74
2021/01/27 04:32:41;;;;;;;13.83;5.97;;;;;;;;;;1752043;82;21593;-74
2021/01/27 04:35:07;;;;;;;5.72;2.55;;;;;;;;;;1752113;82;21176;-74
2021/01/27 04:37:34;;;;;;;11.33;6.15;;;;;;;;;;1752151;82;21151;-74
2021/01/27 04:40:00;;;;;;;13.03;6.20;;;;;;;;;;1751979;82;21577;-73
2021/01/27 04:42:27;;;;;;;14.10;5.90;;;;;;;;;;1752153;82;21178;-73
2021/01/27 04:44:54;;;;;;;12.00;6.37;;;;;;;;;;1735195;80;21163;-75
2021/01/27 04:47:37;;;;;;;20.05;7.67;;;;;;;;;;1725566;82;21142;-74
2021/01/27 04:50:07;;;;;;;10.53;5.05;;;;;;;;;;1725516;83;21268;-79
2021/01/27 04:52:35;;;;;;;15.32;6.95;;;;;;;;;;1715286;83;21151;-74
2021/01/27 04:55:20;;;;;;;11.85;6.22;;;;;;;;;;1725573;83;21570;-78
2021/01/27 04:57:49;;;;;;;12.88;6.35;;;;;;;;;;1725683;83;21729;-78
2021/01/27 05:00:34;;;;;;;8.60;4.95;;;;;;;;;;1725664;82;21289;-73
2021/01/27 05:03:02;;;;;;;15.83;7.43;;;;;;;;;;1725778;83;21167;-73
2021/01/27 05:05:32;;;;;;;8.90;4.45;;;;;;;;;;1725556;83;21304;-77
2021/01/27 05:08:14;;;;;;;12.95;6.85;;;;;;;;;;1725499;82;21143;-79
2021/01/27 05:10:55;;;;;;;10.35;4.35;;;;;;;;;;1725549;83;21579;-74
2021/01/27 05:13:23;;;;;;;11.88;5.40;;;;;;;;;;1725534;81;21292;-78
2021/01/27 05:15:49;;;;;;;14.60;6.17;;;;;;;;;;1725493;83;21112;-74
2021/01/27 05:18:16;;;;;;;17.50;8.23;;;;;;;;;;1725456;83;21111;-73
2021/01/27 05:20:42;;;;;;;14.80;6.00;;;;;;;;;;1725513;83;21150;-79
2021/01/27 05:23:08;;;;;;;13.83;6.25;;;;;;;;;;1725456;83;21182;-77
2021/01/27 05:25:36;;;;;;;10.18;4.65;;;;;;;;;;1725589;82;21111;-78
2021/01/27 05:28:02;;;;;;;14.05;6.17;;;;;;;;;;1725551;83;21177;-77
2021/01/27 05:30:36;;;;;;;8.95;5.03;;;;;;;;;;1741727;81;21142;-75
2021/01/27 05:33:03;;;;;;;9.08;5.22;;;;;;;;;;1772842;81;21150;-78
2021/01/27 05:35:31;;;;;;;11.33;5.62;;;;;;;;;;1772722;81;21138;-74
2021/01/27 05:37:57;;;;;;;12.45;6.30;;;;;;;;;;1772639;81;21162;-72
2021/01/27 05:40:29;;;;;;;9.43;3.55;;;;;;;;;;1772734;81;21134;-73
2021/01/27 05:42:55;;;;;;;11.78;6.20;;;;;;;;;;1772654;81;21139;-77
2021/01/27 05:45:23;;;;;;;17.27;5.85;;;;;;;;;;1772575;81;21138;-73
2021/01/27 05:47:49;;;;;;;11.53;5.95;;;;;;;;;;1772831;81;21143;-78
2021/01/27 05:50:17;;;;;;;12.33;5.30;;;;;;;;;;1772743;81;21142;-79
2021/01/27 05:52:43;;;;;;;10.53;5.40;;;;;;;;;;1733264;82;21614;-74
2021/01/27 05:55:10;;;;;;;15.55;7.35;;;;;;;;;;1772596;81;21208;-74
2021/01/27 05:57:36;;;;;;;14.68;6.83;;;;;;;;;;1772725;81;21123;-80
2021/01/27 06:00:07;;;;;;;15.38;7.28;;;;;;;;;;1772788;81;21142;-74
2021/01/27 06:02:38;;;;;;;13.38;6.60;;;;;;;;;;1772607;81;21127;-80
2021/01/27 06:05:05;;;;;;;10.08;5.00;;;;;;;;;;1771858;80;21149;-75
2021/01/27 06:07:31;;;;;;;12.98;4.62;;;;;;;;;;1772704;81;21169;-74
2021/01/27 06:09:59;;;;;;;11.73;5.58;;;;;;;;;;1767500;81;21144;-74
2021/01/27 06:12:26;;;;;;;15.43;6.20;;;;;;;;;;1743739;82;21140;-79
2021/01/27 06:15:06;;;;;;;15.55;6.53;;;;;;;;;;1743793;82;21133;-79
2021/01/27 06:17:48;;;;;;;12.07;5.40;;;;;;;;;;1743776;82;21113;-74
2021/01/27 06:20:16;;;;;;;11.53;6.62;;;;;;;;;;1743981;82;21160;-74
2021/01/27 06:22:53;;;;;;;16.15;7.25;;;;;;;;;;1743602;82;21556;-79
2021/01/27 06:25:21;;;;;;;12.73;6.22;;;;;;;;;;1743790;82;21556;-80
2021/01/27 06:28:07;;;;;;;19.50;7.42;;;;;;;;;;1744912;81;21117;-76
2021/01/27 06:30:41;;;;;;;10.82;5.97;;;;;;;;;;1770664;79;21090;-74
2021/01/27 06:33:27;;;;;;;12.45;5.97;;;;;;;;;;1716127;82;21127;-72
2021/01/27 06:35:58;;;;;;;9.85;5.70;;;;;;;;;;1709743;84;21136;-74
2021/01/27 06:38:43;;;;;;;13.18;6.55;;;;;;;;;;1749272;81;21111;-74
2021/01/27 06:41:29;;;;;;;19.02;7.22;;;;;;;;;;1765517;81;21121;-74
2021/01/27 06:44:02;;;;;;;12.78;5.28;;;;;;;;;;1757754;80;21518;-71
2021/01/27 06:46:46;;;;;;;11.25;4.70;;;;;;;;;;1782428;80;21106;-72
2021/01/27 06:49:30;;;;;;;11.28;6.05;;;;;;;;;;1781896;80;21538;-78
2021/01/27 06:52:07;;;;;;;10.10;4.47;;;;;;;;;;1782073;80;21133;-71
2021/01/27 06:54:51;;;;;;;12.80;6.85;;;;;;;;;;1781141;80;21157;-73
2021/01/27 06:57:20;;;;;;;14.00;6.55;;;;;;;;;;1778873;80;21106;-75
2021/01/27 06:59:48;;;;;;;15.50;6.62;;;;;;;;;;1769950;80;21134;-73
2021/01/27 07:02:25;;;;;;;12.80;4.62;;;;;;;;;;1765368;80;21122;-79
2021/01/27 07:04:56;;;;;;;10.68;4.92;;;;;;;;;;1765919;80;21235;-78
2021/01/27 07:07:24;;;;;;;11.55;5.78;;;;;;;;;;1776799;80;21144;-76
2021/01/27 07:10:01;;;;;;;13.10;7.25;;;;;;;;;;1728435;82;21141;-78
2021/01/27 07:12:29;;;;;;;12.58;5.50;;;;;;;;;;1733933;81;21161;-75
2021/01/27 07:15:06;;;;;;;5.85;2.67;;;;;;;;;;1728043;83;21133;-72
2021/01/27 07:17:42;;;;;;;15.98;6.60;;;;;;;;;;1725535;83;21132;-73
2021/01/27 07:20:11;;;;;;;13.83;7.00;;;;;;;;;;1699531;84;21172;-75
2021/01/27 07:22:41;;;;;;;7.10;3.98;;;;;;;;;;1699759;84;21299;-75
2021/01/27 07:25:26;;;;;;;10.70;5.08;;;;;;;;;;1699660;84;21587;-72
2021/01/27 07:27:54;;;;;;;13.60;6.63;;;;;;;;;;1699974;84;21276;-77
2021/01/27 07:30:21;;;;;;;14.65;5.90;;;;;;;;;;1699475;84;21148;-79
2021/01/27 07:32:49;;;;;;;14.98;7.15;;;;;;;;;;1699236;84;21145;-79
2021/01/27 07:35:17;;;;;;;18.12;6.50;;;;;;;;;;1710449;83;21730;-73
2021/01/27 07:37:54;;;;;;;16.02;8.35;;;;;;;;;;1721132;83;21156;-73
2021/01/27 07:40:24;;;;;;;17.05;6.70;;;;;;;;;;1670685;85;21181;-74
2021/01/27 07:43:04;;;;;;;15.98;8.00;;;;;;;;;;1743493;82;21602;-73
2021/01/27 07:45:34;;;;;;;17.27;7.95;;;;;;;;;;1736380;82;21178;-74
2021/01/27 07:48:19;;;;;;;11.53;6.20;;;;;;;;;;1730884;83;21142;-78
2021/01/27 07:50:50;;;;;;;8.40;4.37;;;;;;;;;;1731288;83;21154;-78
2021/01/27 07:53:27;;;;;;;12.23;7.17;;;;;;;;;;1729916;83;21448;-73
2021/01/27 07:56:04;;;;;;;18.73;8.00;;;;;;;;;;1730678;83;21142;-74
2021/01/27 07:58:35;;;;;;;10.13;5.37;;;;;;;;;;1730827;83;21162;-73
2021/01/27 08:01:06;;;;;;;19.07;8.75;;;;;;;;;;1730757;83;21178;-78
2021/01/27 08:03:34;;;;;;;9.48;5.22;;;;;;;;;;1730832;83;21151;-78
2021/01/27 08:06:01;;;;;;;7.92;4.17;;;;;;;;;;1730335;83;21185;-77
2021/01/27 08:08:28;;;;;;;12.10;5.35;;;;;;;;;;1730797;83;21575;-80
2021/01/27 08:10:54;;;;;;;9.63;5.15;;;;;;;;;;1701743;84;21179;-73
2021/01/27 08:13:28;;;;;;;16.10;7.53;;;;;;;;;;1701576;84;21179;-74
2021/01/27 08:16:08;;;;;;;15.70;6.67;;;;;;;;;;1701892;84;21595;-74
2021/01/27 08:18:35;;;;;;;16.30;7.25;;;;;;;;;;1701611;84;21127;-77
2021/01/27 08:21:19;;;;;;;14.10;6.05;;;;;;;;;;1701751;84;21923;-77
2021/01/27 08:23:46;;;;;;;15.68;7.17;;;;;;;;;;1701816;84;21579;-74
2021/01/27 08:26:12;;;;;;;14.78;7.62;;;;;;;;;;1701663;84;21140;-74
2021/01/27 08:28:40;;;;;;;14.45;7.25;;;;;;;;;;1677751;84;21559;-73
2021/01/27 08:31:16;;;;;;;7.20;4.53;;;;;;;;;;1701756;84;21144;-78
2021/01/27 08:33:50;;;;;;;14.13;5.78;;;;;;;;;;1701830;84;21539;-78
2021/01/27 08:36:30;;;;;;;16.57;9.08;;;;;;;;;;1701737;84;21143;-78
2021/01/27 08:38:58;;;;;;;10.10;5.03;;;;;;;;;;1701775;84;21588;-79
2021/01/27 08:41:41;;;;;;;12.98;5.50;;;;;;;;;;1701753;84;21168;-77
2021/01/27 08:44:12;;;;;;;11.05;6.08;;;;;;;;;;1701803;84;21133;-77
2021/01/27 08:46:46;;;;;;;10.48;4.55;;;;;;;;;;1694276;83;21151;-77
2021/01/27 08:49:12;;;;;;;10.60;4.80;;;;;;;;;;1696231;84;21114;-78
2021/01/27 08:51:40;;;;;;;11.50;2.77;;;;;;;;;;1696297;85;21153;-77
2021/01/27 08:54:08;;;;;;;7.55;4.15;;;;;;;;;;1695727;83;21114;-78
2021/01/27 08:56:39;;;;;;;5.15;3.02;;;;;;;;;;1691902;83;21202;-77
2021/01/27 08:59:24;;;;;;;9.50;4.45;;;;;;;;;;1660707;85;21137;-77
2021/01/27 09:01:52;;;;;;;9.48;5.12;;;;;;;;;;1696396;85;21158;-72
2021/01/27 09:04:20;;;;;;;10.10;4.25;;;;;;;;;;1696055;85;21129;-73
2021/01/27 09:06:49;;;;;;;10.00;3.98;;;;;;;;;;1693577;84;21142;-74
2021/01/27 09:09:23;;;;;;;12.40;4.42;;;;;;;;;;1705172;82;21533;-73
2021/01/27 09:11:48;;;;;;;;;;;;;;;;;;1727495;83;21565;-73
2021/01/27 09:14:15;;;;;;;8.35;3.77;;;;;;;;;;1725077;83;20257;-73
2021/01/27 09:16:41;;;;;;;8.50;3.92;;;;;;;;;;1725046;83;21553;-73
2021/01/27 09:19:09;;;;;;;6.03;3.37;;;;;;;;;;1724991;83;21157;-73
2021/01/27 09:21:35;;;;;;;10.48;4.58;;;;;;;;;;1724737;83;21161;-73
2021/01/27 09:24:03;;;;;;;6.22;3.15;;;;;;;;;;1725176;83;21149;-73
2021/01/27 09:26:37;;;;;;;8.28;3.85;;;;;;;;;;1724993;82;21137;-73
2021/01/27 09:29:07;;;;;;;13.45;4.65;;;;;;;;;;1725096;83;21157;-76
2021/01/27 09:31:33;;;;;;;9.95;4.58;;;;;;;;;;1724996;82;21145;-72
2021/01/27 09:34:00;;;;;;;8.65;4.12;;;;;;;;;;1725057;82;21560;-77
2021/01/27 09:36:26;;;;;;;7.25;3.60;;;;;;;;;;1696551;83;21164;-77
2021/01/27 09:38:53;;;;;;;11.03;4.15;;;;;;;;;;1725117;82;21129;-76
2021/01/27 09:41:20;;;;;;;8.63;4.85;;;;;;;;;;1724979;83;21164;-76
2021/01/27 09:43:46;;;;;;;7.97;4.00;;;;;;;;;;1724993;82;21129;-77
2021/01/27 09:46:20;;;;;;;10.68;4.92;;;;;;;;;;1728697;82;21551;-79
2021/01/27 09:48:47;;;;;;;9.48;4.15;;;;;;;;;;1720783;83;21146;-77
2021/01/27 09:51:14;;;;;;;8.50;4.25;;;;;;;;;;1730715;83;21170;-79
2021/01/27 09:53:40;;;;;;;10.23;3.65;;;;;;;;;;1730631;83;21179;-79
2021/01/27 09:56:08;;;;;;;8.63;4.03;;;;;;;;;;1730771;83;21137;-74
2021/01/27 09:58:36;;;;;;;7.22;3.83;;;;;;;;;;1730562;83;21569;-74
2021/01/27 10:01:02;;;;;;;10.30;3.77;;;;;;;;;;1730336;83;21551;-73
2021/01/27 10:03:29;;;;;;;9.33;3.58;;;;;;;;;;1730609;83;21162;-72
2021/01/27 10:05:56;;;;;;;9.20;3.47;;;;;;;;;;1705591;83;21581;-73
2021/01/27 10:08:24;;;;;;;10.08;4.35;;;;;;;;;;1730673;83;21141;-73
2021/01/27 10:11:01;;;;;;;10.55;4.37;;;;;;;;;;1701079;83;21152;-73
2021/01/27 10:13:31;;;;;;;5.60;3.17;;;;;;;;;;1701774;84;21171;-73
2021/01/27 10:16:01;;;;;;;9.25;3.92;;;;;;;;;;1701658;84;21159;-78
2021/01/27 10:18:27;;;;;;;7.78;3.85;;;;;;;;;;1701527;84;21148;-78
2021/01/27 10:20:55;;;;;;;11.57;4.30;;;;;;;;;;1701537;84;21571;-73
2021/01/27 10:23:23;;;;;;;10.25;4.12;;;;;;;;;;1700823;83;21553;-74
2021/01/27 10:25:49;;;;;;;12.30;4.95;;;;;;;;;;1697655;84;21147;-73
2021/01/27 10:28:25;;;;;;;13.55;4.78;;;;;;;;;;1701586;84;21151;-78
2021/01/27 10:30:58;;;;;;;7.55;4.33;;;;;;;;;;1701401;84;21151;-73
2021/01/27 10:33:42;;;;;;;16.35;5.10;;;;;;;;;;1701582;84;21131;-74
2021/01/27 10:36:27;;;;;;;11.90;4.50;;;;;;;;;;1701693;84;21119;-73
2021/01/27 10:39:10;;;;;;;8.05;3.52;;;;;;;;;;1701696;84;21124;-78
2021/01/27 10:41:37;;;;;;;7.28;3.58;;;;;;;;;;1676584;84;22312;-78
2021/01/27 10:44:20;;;;;;;6.00;3.30;;;;;;;;;;1701605;84;21167;-77
2021/01/27 10:46:46;;;;;;;11.83;3.98;;;;;;;;;;1693239;84;21142;-77
2021/01/27 10:49:12;;;;;;;8.13;3.70;;;;;;;;;;1710317;84;21129;-77
2021/01/27 10:51:40;;;;;;;6.12;2.80;;;;;;;;;;1710450;84;21133;-78
2021/01/27 10:54:07;;;;;;;7.12;3.52;;;;;;;;;;1710519;84;21136;-77
2021/01/27 10:56:33;;;;;;;7.20;3.95;;;;;;;;;;1710367;84;21132;-79
2021/01/27 10:58:59;;;;;;;7.87;3.33;;;;;;;;;;1710452;84;21144;-80
2021/01/27 11:01:25;;;;;;;7.70;3.08;;;;;;;;;;1710519;84;21141;-76
2021/01/27 11:03:51;;;;;;;4.58;2.40;;;;;;;;;;1710461;84;21138;-77
2021/01/27 11:06:18;;;;;;;10.60;3.00;;;;;;;;;;1710469;84;21147;-79
2021/01/27 11:08:45;;;;;;;5.37;2.90;;;;;;;;;;1710281;84;21109;-77
2021/01/27 11:11:11;;;;;;;7.03;3.42;;;;;;;;;;1707317;84;21123;-79
2021/01/27 11:13:38;;;;;;;9.73;4.03;;;;;;;;;;1772732;81;21284;-78
2021/01/27 11:16:06;;;;;;;6.10;3.50;;;;;;;;;;1772612;81;21137;-79
2021/01/27 11:18:33;;;;;;;6.67;2.87;;;;;;;;;;1771899;80;21127;-80
2021/01/27 11:21:00;;;;;;;6.42;3.72;;;;;;;;;;1733285;83;21594;-81
2021/01/27 11:23:26;;;;;;;8.03;4.08;;;;;;;;;;1772812;81;21208;-79
2021/01/27 11:25:53;;;;;;;9.28;3.67;;;;;;;;;;1772640;81;21142;-80
2021/01/27 11:28:20;;;;;;;6.80;3.80;;;;;;;;;;1772820;81;21150;-79
2021/01/27 11:30:48;;;;;;;6.58;3.50;;;;;;;;;;1772600;81;21158;-78
2021/01/27 11:33:14;;;;;;;6.97;4.95;;;;;;;;;;1765053;81;21167;-73
2021/01/27 11:35:40;;;;;;;9.20;4.28;;;;;;;;;;1743897;82;21158;-74
2021/01/27 11:38:06;;;;;;;13.22;4.00;;;;;;;;;;1743666;82;21144;-74
2021/01/27 11:40:32;;;;;;;7.10;3.70;;;;;;;;;;1743603;82;21747;-78
2021/01/27 11:42:59;;;;;;;6.60;4.00;;;;;;;;;;1743676;82;21145;-78
2021/01/27 11:45:27;;;;;;;6.67;3.62;;;;;;;;;;1743964;82;21553;-79
2021/01/27 11:47:54;;;;;;;10.80;3.62;;;;;;;;;;1744033;82;21100;-78
2021/01/27 11:50:33;;;;;;;8.23;4.15;;;;;;;;;;1743791;82;21136;-74
2021/01/27 11:53:20;;;;;;;9.13;4.40;;;;;;;;;;1741820;82;21266;-75
2021/01/27 11:55:49;;;;;;;10.13;4.45;;;;;;;;;;1714194;84;21537;-73
2021/01/27 11:58:16;;;;;;;13.15;4.60;;;;;;;;;;1714369;84;21136;-73
2021/01/27 12:00:42;;;;;;;6.58;3.80;;;;;;;;;;1714284;84;21580;-78
2021/01/27 12:03:08;;;;;;;9.48;4.33;;;;;;;;;;1714387;84;21179;-73
2021/01/27 12:05:35;;;;;;;8.55;4.60;;;;;;;;;;1714199;84;21153;-79
2021/01/27 12:08:01;;;;;;;9.70;4.58;;;;;;;;;;1714335;84;21152;-74
2021/01/27 12:10:28;;;;;;;6.90;3.77;;;;;;;;;;1737361;82;21125;-74
2021/01/27 12:12:54;;;;;;;7.30;4.00;;;;;;;;;;1742261;82;21569;-74
2021/01/27 12:15:20;;;;;;;10.90;3.33;;;;;;;;;;1742250;82;21133;-72
2021/01/27 12:17:46;;;;;;;5.95;3.60;;;;;;;;;;1742304;82;21610;-73
2021/01/27 12:20:13;;;;;;;7.90;3.95;;;;;;;;;;1742358;82;21176;-73
2021/01/27 12:22:39;;;;;;;8.18;4.80;;;;;;;;;;1742361;82;21141;-73
2021/01/27 12:25:06;;;;;;;10.30;4.78;;;;;;;;;;1742214;82;21162;-73
2021/01/27 12:27:33;;;;;;;10.58;4.37;;;;;;;;;;1742311;82;21142;-75
2021/01/27 12:29:59;;;;;;;8.73;4.22;;;;;;;;;;1742160;82;21134;-72
2021/01/27 12:32:26;;;;;;;8.00;4.15;;;;;;;;;;1742225;82;21137;-78
2021/01/27 12:34:52;;;;;;;6.45;3.22;;;;;;;;;;1742225;82;21153;-77
2021/01/27 12:37:18;;;;;;;8.33;4.03;;;;;;;;;;1742226;82;21142;-78
2021/01/27 12:39:45;;;;;;;9.78;4.67;;;;;;;;;;1742185;82;21141;-78
2021/01/27 12:42:11;;;;;;;8.78;4.15;;;;;;;;;;1742363;82;21137;-76
2021/01/27 12:44:38;;;;;;;7.80;3.70;;;;;;;;;;1742303;82;21181;-79
2021/01/27 12:47:04;;;;;;;9.78;3.47;;;;;;;;;;1745299;82;21110;-77
2021/01/27 12:49:31;;;;;;;8.83;4.42;;;;;;;;;;1747684;82;21118;-77
2021/01/27 12:51:57;;;;;;;11.12;4.42;;;;;;;;;;1747595;82;21581;-78
2021/01/27 12:54:23;;;;;;;9.65;5.35;;;;;;;;;;1747606;82;21141;-74
2021/01/27 12:56:49;;;;;;;9.55;4.47;;;;;;;;;;1747526;82;21134;-74
2021/01/27 12:59:16;;;;;;;10.13;4.03;;;;;;;;;;1747557;82;21141;-74
2021/01/27 13:01:43;;;;;;;8.83;3.95;;;;;;;;;;1747562;82;21154;-79
2021/01/27 13:04:09;;;;;;;8.83;4.72;;;;;;;;;;1747432;82;21268;-80
2021/01/27 13:06:35;;;;;;;8.70;4.40;;;;;;;;;;1747702;82;21141;-80
2021/01/27 13:09:02;;;;;;;8.00;3.98;;;;;;;;;;1737031;82;21251;-79
2021/01/27 13:11:28;;;;;;;9.00;3.47;;;;;;;;;;1717964;83;21149;-79
2021/01/27 13:13:54;;;;;;;5.15;2.52;;;;;;;;;;1717810;83;21157;-79
2021/01/27 13:16:20;;;;;;;6.75;2.85;;;;;;;;;;1717799;83;21160;-79
2021/01/27 13:18:47;;;;;;;7.30;3.30;;;;;;;;;;1717828;83;21113;-79
2021/01/27 13:21:13;;;;;;;9.50;3.45;;;;;;;;;;1717889;83;21144;-78
2021/01/27 13:23:40;;;;;;;12.33;4.72;;;;;;;;;;1717695;83;21172;-73
2021/01/27 13:26:12;;;;;;;10.25;4.55;;;;;;;;;;1717889;83;21151;-74
2021/01/27 13:28:38;;;;;;;5.90;2.95;;;;;;;;;;1714485;83;21145;-73
2021/01/27 13:31:04;;;;;;;9.63;3.67;;;;;;;;;;1717830;83;21152;-75
2021/01/27 13:33:30;;;;;;;8.05;4.05;;;;;;;;;;1717785;83;21121;-73
2021/01/27 13:35:56;;;;;;;7.15;3.22;;;;;;;;;;1717729;83;21141;-74
2021/01/27 13:38:23;;;;;;;10.40;3.35;;;;;;;;;;1717784;83;21141;-78
2021/01/27 13:43:48;;;;;;;17.57;2.42;;;;;;;;;;1780376;79;22889;-78
2021/01/27 13:46:14;;;;;;;6.65;3.00;;;;;;;;;;1753741;82;21572;-73
2021/01/27 13:48:41;;;;;;;7.35;3.47;;;;;;;;;;1753779;82;21141;-74
2021/01/27 13:51:07;;;;;;;7.10;3.65;;;;;;;;;;1753818;82;21607;-75
2021/01/27 13:53:33;;;;;;;8.45;4.20;;;;;;;;;;1753888;82;21577;-79
2021/01/27 13:55:59;;;;;;;6.78;1.90;;;;;;;;;;1753995;82;21153;-73
2021/01/27 13:58:25;;;;;;;5.97;3.15;;;;;;;;;;1754000;82;21126;-72
2021/01/27 14:00:52;;;;;;;6.20;3.30;;;;;;;;;;1753678;82;21614;-74
2021/01/27 14:03:18;;;;;;;6.37;2.92;;;;;;;;;;1753703;82;21158;-79
2021/01/27 14:05:44;;;;;;;7.12;3.60;;;;;;;;;;1753973;82;21180;-79
2021/01/27 14:08:10;;;;;;;7.92;3.20;;;;;;;;;;1751483;82;21169;-73
2021/01/27 14:10:37;;;;;;;6.60;3.83;;;;;;;;;;1750568;82;21568;-80
2021/01/27 14:13:03;;;;;;;9.10;3.95;;;;;;;;;;1753911;82;21114;-79
2021/01/27 14:15:30;;;;;;;8.15;4.50;;;;;;;;;;1753871;82;21161;-72
2021/01/27 14:17:57;;;;;;;7.97;4.75;;;;;;;;;;1753860;81;21601;-72
2021/01/27 14:20:24;;;;;;;8.20;4.15;;;;;;;;;;1753713;82;21292;-78
2021/01/27 14:22:50;;;;;;;8.18;5.45;;;;;;;;;;1739845;82;21156;-73
2021/01/27 14:25:18;;;;;;;10.95;5.03;;;;;;;;;;1708746;84;21547;-74
2021/01/27 14:27:45;;;;;;;8.98;4.70;;;;;;;;;;1708768;83;21172;-73
2021/01/27 14:30:11;;;;;;;8.73;4.92;;;;;;;;;;1708668;84;21140;-73
2021/01/27 14:32:37;;;;;;;7.92;4.47;;;;;;;;;;1708929;84;21144;-79
2021/01/27 14:35:04;;;;;;;12.33;4.75;;;;;;;;;;1709045;84;21166;-78
2021/01/27 14:37:30;;;;;;;7.58;4.15;;;;;;;;;;1708685;82;21143;-76
2021/01/27 14:39:57;;;;;;;14.73;5.83;;;;;;;;;;1708965;84;21116;-79
2021/01/27 14:42:23;;;;;;;12.15;5.47;;;;;;;;;;1715968;83;21142;-77
2021/01/27 14:44:49;;;;;;;9.18;4.80;;;;;;;;;;1732185;83;21170;-78
2021/01/27 14:47:16;;;;;;;13.13;6.12;;;;;;;;;;1731985;83;21147;-79